Главная страница
METAR-TAF:

METAR-TAF

Аэропорты :

Окленд, Новая Зеландия

широта: 37-01S, долгота: 174-48E, высота над уровнем моря: 7 м

Текущие метеонаблюдения

Эта сводка был подготовлена 31 минут назад, в 14:30 UTC
Ветер 2 Узел от северо-восточный
Температура 18°C
Влажность 88%
Давление 1025 hPa
Видимость 10 км и более

METAR: NZAA 241430Z AUTO 05002KT 9999 FEW023/// BKN070/// BKN090/// 18/16 Q1025 NOSIG

Время: 04:01 (15:01 UTC)

Прогноз

Эта сводка был подготовлена 3 часа и 56 минут назад, в 11:05 UTC
Прогноз действительный с 24-го 12 UTC до 25-го 12 UTC
Ветер 5 Узел от северо-восточный
Видимость 10 км и более
Отдельные облака на высоте 2500 фута
С 25-го 0000 UTC
Ветер 15 Узел от северо-северо-восточный
Видимость 10 км и более
небольшая облачность на высоте 2500 фута
С 25-го 0800 UTC
Ветер 5 Узел от северо-восточный
Видимость 10 км и более
Отдельные облака на высоте 2500 фута

TAF: NZAA 241105Z 2412/2512 04005KT 9999 SCT025 FM250000 02015KT 9999 FEW025 FM250800 04005KT 9999 SCT025

Метеонаблюдения и прогнозы для более 4000 аэропортов (сводки METAR и TAF).

Имеющиеся станции представлены на карте желтыми и красными точками.

Чтобы увидеть название станции, наведите на нее мышь.

Затем щелкните, чтобы увидеть метеонаблюдения и метеопрогнозы.

Управление картой: чтобы увеличить масштаб, щелкните зеленые кнопки с черным крестиком; чтобы уменьшить масштаб, щелкните зеленую кнопку с тире; для просмотра соседних карт щелкайте зеленые стрелки.


METAR-TAF: